Time;durP1;ratioP1;P1;durP2;ratioP2;P2;SDS_P1;SDS_P2;PMS_P1;PMS_P2;Temp;Humidity;BMP_temperature;BMP_pressure;BME280_temperature;BME280_humidity;BME280_pressure;Samples;Min_cycle;Max_cycle;Signal;HPM_P1;HPM_P2
2022/12/08 05:22:37;;;;;;;12.32;4.25;;;;;;;0.24;100.00;99742.72;5089113;28;20735;-67
2022/12/08 05:25:03;;;;;;;5.50;4.13;;;;;;;0.27;100.00;99747.72;5089241;28;20037;-67
2022/12/08 05:27:28;;;;;;;11.70;5.82;;;;;;;0.31;100.00;99748.31;5085262;28;20067;-67
2022/12/08 05:29:53;;;;;;;13.50;5.55;;;;;;;0.32;100.00;99747.34;5068684;28;20037;-68
2022/12/08 05:32:19;;;;;;;11.43;5.82;;;;;;;0.34;100.00;99750.69;5068885;28;20468;-68
2022/12/08 05:34:44;;;;;;;16.98;6.05;;;;;;;0.37;100.00;99745.22;5068801;28;20045;-68
2022/12/08 05:37:10;;;;;;;10.30;5.47;;;;;;;0.32;100.00;99744.72;5068659;28;20089;-68
2022/12/08 05:39:35;;;;;;;13.77;6.32;;;;;;;0.31;100.00;99743.06;5067407;28;20504;-68
2022/12/08 05:42:00;;;;;;;10.05;5.78;;;;;;;0.29;100.00;99739.75;5068359;28;20065;-69
2022/12/08 05:44:26;;;;;;;12.57;5.75;;;;;;;0.25;100.00;99726.88;5068638;28;20113;-69
2022/12/08 05:46:51;;;;;;;11.27;5.63;;;;;;;0.24;100.00;99733.06;5068651;28;20037;-67
2022/12/08 05:49:17;;;;;;;9.00;4.60;;;;;;;0.27;100.00;99732.00;5068403;28;20036;-69
2022/12/08 05:51:43;;;;;;;14.70;6.43;;;;;;;0.32;100.00;99737.69;5067927;28;20043;-68
2022/12/08 05:54:09;;;;;;;12.90;6.63;;;;;;;0.31;100.00;99729.97;5068386;28;20119;-67
2022/12/08 05:56:34;;;;;;;11.77;5.32;;;;;;;0.33;100.00;99733.31;5068285;28;20081;-69
2022/12/08 05:59:00;;;;;;;10.38;5.22;;;;;;;0.38;100.00;99731.16;5068224;28;20032;-68
2022/12/08 06:01:28;;;;;;;14.75;6.43;;;;;;;0.37;100.00;99732.94;5067812;28;20067;-69
2022/12/08 06:03:54;;;;;;;15.65;7.05;;;;;;;0.39;100.00;99735.44;5068325;28;20463;-67
2022/12/08 06:06:20;;;;;;;14.70;6.40;;;;;;;0.40;100.00;99732.72;5068068;28;20124;-68
2022/12/08 06:08:46;;;;;;;14.10;5.43;;;;;;;0.42;100.00;99741.28;5068078;28;20040;-68
2022/12/08 06:11:23;;;;;;;12.77;6.07;;;;;;;0.42;100.00;99736.03;5067650;28;20106;-67
2022/12/08 06:13:50;;;;;;;17.13;7.30;;;;;;;0.41;100.00;99738.78;5067959;28;20393;-69
2022/12/08 06:16:16;;;;;;;17.98;7.07;;;;;;;0.40;100.00;99742.38;5067881;28;20040;-69
2022/12/08 06:18:41;;;;;;;12.43;5.50;;;;;;;0.39;100.00;99743.28;5067898;28;20044;-67
2022/12/08 06:21:09;;;;;;;14.45;6.30;;;;;;;0.44;100.00;99743.78;5067514;28;20494;-69
2022/12/08 06:23:34;;;;;;;16.35;7.07;;;;;;;0.37;100.00;99732.94;5067816;28;20055;-69
2022/12/08 06:26:01;;;;;;;13.85;5.68;;;;;;;0.35;100.00;99734.84;5067616;28;20044;-68
2022/12/08 06:28:28;;;;;;;12.03;5.17;;;;;;;0.39;100.00;99736.28;5067714;28;20137;-68
2022/12/08 06:30:53;;;;;;;10.48;5.53;;;;;;;0.36;100.00;99735.69;5067221;28;20303;-68
2022/12/08 06:33:19;;;;;;;21.10;8.07;;;;;;;0.46;100.00;99737.47;5057960;28;20049;-68
2022/12/08 06:35:44;;;;;;;14.02;6.68;;;;;;;0.39;100.00;99741.53;5054257;28;20568;-69
2022/12/08 06:38:09;;;;;;;13.88;6.45;;;;;;;0.39;100.00;99728.44;5051504;28;20116;-69
2022/12/08 06:40:35;;;;;;;10.13;6.35;;;;;;;0.40;100.00;99732.72;5053559;28;20037;-68
2022/12/08 06:43:00;;;;;;;12.43;6.15;;;;;;;0.38;100.00;99733.78;5054219;28;20070;-68
2022/12/08 06:45:25;;;;;;;14.25;6.68;;;;;;;0.37;100.00;99734.72;5050174;28;20053;-68
2022/12/08 06:47:51;;;;;;;13.75;5.93;;;;;;;0.41;100.00;99738.78;5041665;28;20037;-67
2022/12/08 06:50:16;;;;;;;7.15;5.40;;;;;;;0.41;100.00;99741.41;5045068;28;20036;-67
2022/12/08 06:52:42;;;;;;;11.85;5.93;;;;;;;0.39;100.00;99743.28;5047941;28;20026;-67
2022/12/08 06:55:08;;;;;;;13.48;5.95;;;;;;;0.39;100.00;99746.78;5042587;28;20106;-68
2022/12/08 06:57:34;;;;;;;12.40;6.18;;;;;;;0.36;100.00;99743.53;5044146;28;20039;-67
2022/12/08 06:59:59;;;;;;;9.57;5.70;;;;;;;0.36;100.00;99747.00;5041740;28;20045;-67
2022/12/08 07:02:25;;;;;;;9.55;5.18;;;;;;;0.34;100.00;99740.22;5042410;28;20528;-67
2022/12/08 07:04:50;;;;;;;11.57;5.88;;;;;;;0.40;100.00;99743.19;5044328;28;20033;-67
2022/12/08 07:07:16;;;;;;;13.57;5.70;;;;;;;0.47;100.00;99748.78;5042963;28;20487;-66
2022/12/08 07:09:41;;;;;;;12.35;6.60;;;;;;;0.42;100.00;99745.69;5043617;28;20036;-67
2022/12/08 07:12:06;;;;;;;11.38;5.40;;;;;;;0.45;100.00;99748.06;5044332;28;20045;-67
2022/12/08 07:14:32;;;;;;;19.23;6.35;;;;;;;0.42;100.00;99751.75;5048149;28;20044;-67
2022/12/08 07:16:57;;;;;;;19.17;7.15;;;;;;;0.44;100.00;99741.16;5053471;28;20079;-67
2022/12/08 07:19:23;;;;;;;16.45;5.55;;;;;;;0.43;100.00;99747.34;5053602;28;20037;-67
2022/12/08 07:21:48;;;;;;;13.57;6.88;;;;;;;0.47;100.00;99746.16;5053080;28;20413;-67
2022/12/08 07:24:14;;;;;;;11.38;6.40;;;;;;;0.43;100.00;99744.72;5053460;28;20033;-67
2022/12/08 07:26:40;;;;;;;11.82;6.25;;;;;;;0.39;100.00;99745.91;5053361;28;20120;-68
2022/12/08 07:29:05;;;;;;;15.40;7.13;;;;;;;0.48;100.00;99753.06;5053365;28;20037;-67
2022/12/08 07:31:31;;;;;;;14.68;6.93;;;;;;;0.47;100.00;99746.16;5052880;28;20207;-67
2022/12/08 07:33:56;;;;;;;19.40;8.23;;;;;;;0.51;100.00;99758.88;5053252;28;20509;-67
2022/12/08 07:36:22;;;;;;;18.20;7.32;;;;;;;0.53;100.00;99761.41;5053171;28;20512;-67
2022/12/08 07:38:48;;;;;;;12.55;5.72;;;;;;;0.56;100.00;99753.28;5053276;28;20055;-68
2022/12/08 07:41:19;;;;;;;14.10;6.18;;;;;;;0.59;100.00;99758.31;5052764;28;20490;-67
2022/12/08 07:43:45;;;;;;;15.43;6.78;;;;;;;0.52;100.00;99755.34;5052543;28;20040;-67
2022/12/08 07:46:12;;;;;;;16.42;7.45;;;;;;;0.53;100.00;99745.69;5052402;28;20390;-67
2022/12/08 07:48:37;;;;;;;11.63;7.10;;;;;;;0.55;100.00;99754.25;5053072;28;20432;-68
2022/12/08 07:51:04;;;;;;;13.93;6.82;;;;;;;0.59;100.00;99752.19;5051244;28;20037;-67
2022/12/08 07:53:30;;;;;;;17.40;7.82;;;;;;;0.60;100.00;99740.78;5052941;28;20029;-68
2022/12/08 07:55:56;;;;;;;17.38;7.65;;;;;;;0.59;100.00;99739.09;5052767;28;20037;-68
2022/12/08 07:58:21;;;;;;;23.23;7.82;;;;;;;0.58;100.00;99734.81;5052902;28;20033;-68
2022/12/08 08:00:47;;;;;;;19.58;6.57;;;;;;;0.56;100.00;99736.72;5052538;28;20037;-68
2022/12/08 08:03:12;;;;;;;17.23;7.55;;;;;;;0.52;100.00;99730.88;5052812;28;20059;-68
2022/12/08 08:05:38;;;;;;;16.23;7.03;;;;;;;0.54;100.00;99731.63;5052643;28;20073;-68
2022/12/08 08:08:03;;;;;;;20.55;8.00;;;;;;;0.48;100.00;99724.25;5052573;28;20033;-68
2022/12/08 08:10:29;;;;;;;15.73;6.80;;;;;;;0.48;100.00;99726.88;5052113;28;20040;-68
2022/12/08 08:12:57;;;;;;;14.18;6.70;;;;;;;0.57;100.00;99727.91;5052676;28;20136;-68
2022/12/08 08:15:23;;;;;;;20.25;7.63;;;;;;;0.57;100.00;99727.91;5052387;28;20132;-67
2022/12/08 08:17:52;;;;;;;13.30;6.28;;;;;;;0.59;100.00;99733.84;5052465;28;20140;-64
2022/12/08 08:20:19;;;;;;;20.02;7.45;;;;;;;0.57;100.00;99726.13;5054627;28;20520;-65
2022/12/08 08:22:46;;;;;;;21.38;7.13;;;;;;;0.62;100.00;99720.53;5071083;28;20524;-67
2022/12/08 08:25:12;;;;;;;19.17;7.63;;;;;;;0.64;100.00;99724.66;5072043;28;20040;-66
2022/12/08 08:27:38;;;;;;;13.05;8.02;;;;;;;0.72;100.00;99718.84;5072157;28;20042;-66
2022/12/08 08:30:08;;;;;;;14.15;7.10;;;;;;;0.73;100.00;99720.50;5071811;28;20036;-66
2022/12/08 08:32:34;;;;;;;17.92;7.40;;;;;;;0.70;100.00;99718.94;5071705;28;20085;-65
2022/12/08 08:35:00;;;;;;;20.35;8.65;;;;;;;0.79;100.00;99728.72;5071924;28;20028;-65
2022/12/08 08:37:26;;;;;;;18.45;8.18;;;;;;;0.79;100.00;99728.72;5071734;28;20051;-63
2022/12/08 08:39:52;;;;;;;11.32;6.60;;;;;;;0.84;100.00;99730.09;5071767;28;20543;-64
2022/12/08 08:42:18;;;;;;;9.95;6.03;;;;;;;0.87;100.00;99725.47;5071499;28;20028;-65
2022/12/08 08:44:43;;;;;;;19.00;9.18;;;;;;;0.94;100.00;99731.88;5071668;28;20458;-68
2022/12/08 08:47:08;;;;;;;13.75;7.38;;;;;;;1.00;100.00;99727.91;5071618;28;20041;-67
2022/12/08 08:49:34;;;;;;;12.93;7.65;;;;;;;1.05;100.00;99729.22;5071730;28;20036;-67
2022/12/08 08:51:59;;;;;;;18.08;6.65;;;;;;;1.03;100.00;99731.13;5070055;28;20117;-64
2022/12/08 08:54:28;;;;;;;15.00;7.10;;;;;;;1.04;100.00;99724.94;5070893;28;20056;-67
2022/12/08 08:56:53;;;;;;;13.93;6.82;;;;;;;1.19;100.00;99730.72;5069978;28;20504;-67
2022/12/08 08:59:18;;;;;;;12.88;6.32;;;;;;;1.19;100.00;99720.22;5071632;28;20040;-66
2022/12/08 09:01:44;;;;;;;13.23;5.10;;;;;;;1.32;100.00;99717.41;5071508;28;20345;-65
2022/12/08 09:04:09;;;;;;;15.48;7.00;;;;;;;1.33;100.00;99722.53;5071348;28;20184;-67
2022/12/08 09:14:14;;;;;;;10.30;5.43;;;;;;;1.57;100.00;99714.41;5071447;28;20043;-66
2022/12/08 09:16:41;;;;;;;15.20;5.70;;;;;;;1.58;100.00;99710.00;5071405;28;20127;-65
2022/12/08 09:19:06;;;;;;;16.98;6.85;;;;;;;1.62;100.00;99708.75;5071132;28;20047;-65
2022/12/08 09:21:32;;;;;;;15.13;5.70;;;;;;;1.65;100.00;99710.31;5071086;28;20421;-66
2022/12/08 09:23:58;;;;;;;8.98;4.93;;;;;;;1.69;100.00;99712.53;5071388;28;20044;-67
2022/12/08 09:26:26;;;;;;;10.68;6.03;;;;;;;1.70;100.00;99705.50;5071184;28;20101;-67
2022/12/08 09:28:52;;;;;;;11.82;6.32;;;;;;;1.77;100.00;99714.53;5071288;28;20508;-65
2022/12/08 09:31:19;;;;;;;21.73;7.28;;;;;;;1.81;100.00;99706.22;5070903;28;20371;-66
2022/12/08 09:33:46;;;;;;;15.23;6.43;;;;;;;1.91;100.00;99711.56;5071329;28;20113;-66
2022/12/08 09:36:12;;;;;;;14.32;5.78;;;;;;;1.94;100.00;99710.44;5071134;28;20039;-63
2022/12/08 09:38:39;;;;;;;9.85;5.65;;;;;;;2.01;100.00;99704.53;5071175;28;20052;-65
2022/12/08 09:41:15;;;;;;;14.27;5.95;;;;;;;2.07;100.00;99701.38;5070856;28;20037;-66
2022/12/08 09:43:57;;;;;;;16.88;6.45;;;;;;;2.18;100.00;99700.47;5071306;28;20082;-66
2022/12/08 09:46:27;;;;;;;16.88;7.53;;;;;;;2.22;100.00;99698.38;5071064;28;20119;-67
2022/12/08 09:48:58;;;;;;;12.75;5.65;;;;;;;2.26;100.00;99691.91;5071499;28;20028;-65
2022/12/08 09:51:26;;;;;;;10.48;5.95;;;;;;;2.33;100.00;99691.25;5070950;28;20037;-67
2022/12/08 09:54:06;;;;;;;12.55;6.95;;;;;;;2.36;100.00;99688.34;5071175;28;20040;-66
2022/12/08 09:56:35;;;;;;;11.77;6.85;;;;;;;2.42;100.00;99684.38;5070903;28;20159;-67
2022/12/08 09:59:22;;;;;;;10.57;5.63;;;;;;;2.51;100.00;99682.72;5055434;28;20029;-67
2022/12/08 10:01:48;;;;;;;14.43;6.45;;;;;;;2.48;100.00;99667.19;5049548;28;20451;-67
2022/12/08 10:04:37;;;;;;;19.42;6.68;;;;;;;2.45;100.00;99665.69;5050915;28;20037;-66
2022/12/08 10:07:03;;;;;;;20.45;7.05;;;;;;;2.54;100.00;99664.03;5049578;28;20043;-66
2022/12/08 10:09:48;;;;;;;14.40;6.95;;;;;;;2.54;100.00;99662.22;5054043;28;20029;-64
2022/12/08 10:12:53;;;;;;;13.82;7.05;;;;;;;2.61;100.00;99665.16;5053354;28;20063;-66
2022/12/08 10:15:40;;;;;;;12.43;5.78;;;;;;;2.61;100.00;99659.91;5046443;28;20045;-67
2022/12/08 10:18:28;;;;;;;9.10;5.72;;;;;;;2.77;100.00;99657.56;5048701;28;20028;-67
2022/12/08 10:20:59;;;;;;;10.80;4.85;;;;;;;2.82;100.00;99650.09;5052170;28;20044;-67
2022/12/08 10:23:35;;;;;;;12.63;5.47;;;;;;;2.89;100.00;99659.09;5050221;28;20045;-67
2022/12/08 10:26:13;;;;;;;11.60;6.45;;;;;;;2.91;100.00;99649.25;5034629;28;20045;-67
2022/12/08 10:28:38;;;;;;;;;;;;;;;2.99;100.00;99652.00;5035224;28;20471;-67
2022/12/08 10:31:04;;;;;;;16.15;6.63;;;;;;;3.06;100.00;99656.72;5033518;28;19928;-67
2022/12/08 10:33:31;;;;;;;13.73;6.55;;;;;;;3.09;100.00;99643.28;5034276;28;20041;-67
2022/12/08 10:36:01;;;;;;;14.75;6.07;;;;;;;3.13;100.00;99642.03;5034156;28;20053;-67
2022/12/08 10:38:38;;;;;;;12.60;6.30;;;;;;;3.14;100.00;99639.28;5034008;28;20475;-67
2022/12/08 10:41:09;;;;;;;10.02;5.32;;;;;;;3.22;100.00;99636.75;5033768;28;20033;-67
2022/12/08 10:43:59;;;;;;;12.77;6.57;;;;;;;3.26;100.00;99637.31;5049456;28;20076;-66
2022/12/08 10:46:27;;;;;;;10.98;5.63;;;;;;;3.32;100.00;99630.63;5033851;28;20042;-67
2022/12/08 10:49:02;;;;;;;13.32;5.82;;;;;;;3.30;100.00;99630.78;5034041;28;20099;-66
2022/12/08 10:51:33;;;;;;;13.88;6.32;;;;;;;3.34;100.00;99628.72;5033546;28;20041;-67
2022/12/08 10:53:58;;;;;;;13.40;6.07;;;;;;;3.40;100.00;99634.25;5034067;28;20290;-66
2022/12/08 10:56:29;;;;;;;11.80;6.60;;;;;;;3.35;100.00;99627.75;5033736;28;20441;-66
2022/12/08 10:59:11;;;;;;;16.13;6.20;;;;;;;3.43;100.00;99623.41;5033962;28;20060;-67
2022/12/08 11:01:39;;;;;;;15.90;6.63;;;;;;;3.45;100.00;99613.56;5033580;28;20043;-67
2022/12/08 11:04:12;;;;;;;14.75;6.75;;;;;;;3.52;100.00;99608.53;5033932;28;20538;-67
2022/12/08 11:06:39;;;;;;;13.57;5.30;;;;;;;3.52;100.00;99606.78;5033627;28;20045;-68
2022/12/08 11:09:16;;;;;;;13.63;6.20;;;;;;;3.58;100.00;99607.16;5033622;28;20033;-67
2022/12/08 11:11:50;;;;;;;9.85;5.18;;;;;;;3.53;100.00;99603.16;5033140;28;20042;-68
2022/12/08 11:14:22;;;;;;;11.02;5.55;;;;;;;3.50;100.00;99605.25;5033484;28;20065;-67
2022/12/08 11:16:50;;;;;;;14.18;5.75;;;;;;;3.54;100.00;99604.81;5033836;28;20108;-67
2022/12/08 11:19:18;;;;;;;10.88;4.97;;;;;;;3.59;100.00;99596.50;5033580;28;20034;-67
2022/12/08 11:21:44;;;;;;;8.40;4.72;;;;;;;3.54;100.00;99594.28;5048510;28;20033;-68
2022/12/08 11:24:13;;;;;;;10.48;5.28;;;;;;;3.58;100.00;99592.19;5033433;28;20048;-68
2022/12/08 11:26:39;;;;;;;8.30;4.80;;;;;;;3.57;100.00;99589.69;5033258;28;20041;-67
2022/12/08 11:29:09;;;;;;;8.98;5.07;;;;;;;3.59;100.00;99596.50;5033302;28;20029;-67
2022/12/08 11:31:48;;;;;;;11.60;4.63;;;;;;;3.62;100.00;99584.81;5062968;22;20025;-65
2022/12/08 11:34:29;;;;;;;12.43;5.00;;;;;;;3.61;100.00;99586.63;5093132;28;20039;-65
2022/12/08 11:36:56;;;;;;;11.32;5.28;;;;;;;3.68;100.00;99581.63;5093089;28;20028;-65
2022/12/08 11:39:24;;;;;;;12.45;5.30;;;;;;;3.75;100.00;99585.31;5092974;28;20450;-65
2022/12/08 11:41:53;;;;;;;7.97;4.38;;;;;;;3.80;100.00;99580.47;5092594;28;20115;-64
2022/12/08 11:44:29;;;;;;;8.82;5.15;;;;;;;3.80;100.00;99569.91;5092861;28;20115;-63
2022/12/08 11:46:59;;;;;;;11.68;5.18;;;;;;;3.85;100.00;99569.47;5092577;28;20016;-63
2022/12/08 11:49:35;;;;;;;10.18;4.32;;;;;;;3.85;100.00;99567.69;5074617;28;20036;-63
2022/12/08 11:52:29;;;;;;;5.35;3.38;;;;;;;3.85;99.28;99565.03;5092314;28;20055;-63
2022/12/08 11:55:02;;;;;;;7.57;3.78;;;;;;;3.76;97.56;99571.19;5082768;28;20051;-62
2022/12/08 11:57:29;;;;;;;8.73;4.18;;;;;;;3.84;99.63;99566.00;5074074;28;20074;-62
2022/12/08 11:59:56;;;;;;;9.48;4.60;;;;;;;3.85;99.11;99554.50;5092183;28;20111;-63
2022/12/08 12:02:28;;;;;;;8.80;4.22;;;;;;;3.89;99.06;99555.84;5091963;28;20032;-62
2022/12/08 12:05:02;;;;;;;3.72;2.58;;;;;;;3.97;97.26;99550.66;5092461;28;20032;-61
2022/12/08 12:07:59;;;;;;;6.30;3.47;;;;;;;4.01;96.73;99557.31;5092213;28;20038;-64
2022/12/08 12:10:37;;;;;;;;;;;;;;;3.99;96.01;99551.38;5074771;28;20048;-64
2022/12/08 12:13:08;;;;;;;6.10;3.35;;;;;;;4.05;96.79;99552.59;5092099;28;19998;-64
2022/12/08 12:15:52;;;;;;;9.02;3.38;;;;;;;4.07;96.63;99540.09;5092069;28;20032;-64
2022/12/08 12:18:26;;;;;;;8.05;4.15;;;;;;;4.04;96.90;99541.22;5092011;28;20036;-64
2022/12/08 12:21:00;;;;;;;11.27;4.50;;;;;;;4.09;96.11;99532.84;5091755;28;20028;-63
2022/12/08 12:23:39;;;;;;;6.28;4.22;;;;;;;4.21;96.79;99538.75;5091947;28;20358;-64
2022/12/08 12:26:07;;;;;;;7.75;3.83;;;;;;;4.12;94.18;99526.47;5091883;28;20116;-64
2022/12/08 12:28:48;;;;;;;9.50;4.05;;;;;;;4.22;94.46;99535.13;5091886;28;20020;-64
2022/12/08 12:31:20;;;;;;;8.93;3.10;;;;;;;4.26;93.02;99534.69;5090969;28;20032;-65
2022/12/08 12:33:46;;;;;;;9.07;4.18;;;;;;;4.26;92.62;99542.59;5091913;28;20043;-64
2022/12/08 12:36:13;;;;;;;6.65;3.10;;;;;;;4.28;93.00;99532.72;5091757;28;20109;-64
2022/12/08 12:38:59;;;;;;;6.00;3.83;;;;;;;4.26;91.98;99526.75;5091788;28;20450;-64
2022/12/08 12:41:31;;;;;;;4.63;3.05;;;;;;;4.26;90.15;99528.56;5091492;28;20424;-65
2022/12/08 12:44:08;;;;;;;6.25;3.42;;;;;;;4.23;91.43;99528.88;5091866;28;20039;-64
2022/12/08 12:46:49;;;;;;;4.93;2.72;;;;;;;4.27;93.13;99525.78;5091792;28;20050;-62
2022/12/08 12:49:39;;;;;;;8.07;3.55;;;;;;;4.25;90.46;99524.28;5092008;28;20070;-63
2022/12/08 12:52:22;;;;;;;5.88;2.95;;;;;;;4.27;89.82;99519.69;5091145;28;20647;-62
2022/12/08 12:54:48;;;;;;;6.55;3.22;;;;;;;4.29;89.56;99523.81;5091569;28;20085;-65
2022/12/08 12:57:19;;;;;;;6.40;2.65;;;;;;;4.32;91.67;99525.34;5091506;28;20040;-65
2022/12/08 12:59:51;;;;;;;5.78;3.47;;;;;;;4.38;92.23;99518.66;5091485;28;20056;-64
2022/12/08 13:02:18;;;;;;;5.25;3.00;;;;;;;4.33;92.51;99521.72;5091065;28;20515;-64
2022/12/08 13:04:53;;;;;;;6.15;3.33;;;;;;;4.41;91.67;99516.50;5091675;28;20414;-63
2022/12/08 13:07:22;;;;;;;4.35;2.92;;;;;;;4.42;90.47;99512.88;5091335;28;20052;-65
2022/12/08 13:09:56;;;;;;;7.82;2.72;;;;;;;4.39;87.44;99521.13;5091221;28;20036;-65
2022/12/08 13:12:23;;;;;;;6.50;3.47;;;;;;;4.36;88.72;99518.78;5090952;28;20040;-65
2022/12/08 13:14:50;;;;;;;5.57;2.95;;;;;;;4.36;87.22;99511.69;5091221;28;20036;-64
2022/12/08 13:17:27;;;;;;;4.50;2.50;;;;;;;4.36;87.00;99509.03;5091210;28;20119;-64
2022/12/08 13:19:56;;;;;;;3.63;2.70;;;;;;;4.34;88.25;99511.00;5091259;28;20429;-64
2022/12/08 13:22:59;;;;;;;4.32;2.22;;;;;;;4.38;89.52;99514.19;5090761;28;20032;-62
2022/12/08 13:25:43;;;;;;;5.18;2.90;;;;;;;4.31;87.81;99513.16;5087393;28;20356;-63
2022/12/08 13:28:14;;;;;;;4.45;2.63;;;;;;;4.36;86.18;99510.84;5081756;28;20048;-62
2022/12/08 13:30:44;;;;;;;3.67;2.33;;;;;;;4.41;87.21;99515.69;5080118;28;20032;-63
2022/12/08 13:33:23;;;;;;;7.03;3.20;;;;;;;4.39;89.23;99505.28;5079401;28;20093;-63
2022/12/08 13:36:09;;;;;;;4.95;2.95;;;;;;;4.40;85.96;99500.84;5079641;28;20728;-63
2022/12/08 13:38:36;;;;;;;5.32;2.67;;;;;;;4.34;87.67;99497.00;5079854;28;20401;-63
2022/12/08 13:41:12;;;;;;;6.57;3.20;;;;;;;4.37;86.45;99502.00;5080321;28;20043;-63
2022/12/08 13:43:47;;;;;;;4.07;2.30;;;;;;;4.32;86.59;99493.69;5082431;28;20363;-63
2022/12/08 13:46:16;;;;;;;5.30;2.75;;;;;;;4.29;86.06;99493.97;5066296;28;20044;-65
2022/12/08 13:48:47;;;;;;;3.83;2.30;;;;;;;4.21;86.03;99500.03;5067015;28;20042;-64
2022/12/08 13:51:24;;;;;;;3.22;2.42;;;;;;;4.24;85.87;99493.63;5085488;28;20081;-64
2022/12/08 13:54:20;;;;;;;4.70;2.75;;;;;;;4.28;87.66;99494.97;5059094;28;20047;-63
2022/12/08 13:56:48;;;;;;;4.88;2.40;;;;;;;4.27;87.05;99498.59;5077485;28;20036;-63
2022/12/08 13:59:32;;;;;;;;;;;;;;;4.27;86.73;99502.06;5051354;28;20659;-62
2022/12/08 14:02:12;;;;;;;6.60;2.97;;;;;;;4.23;87.92;99499.84;5083476;28;20389;-63
2022/12/08 14:04:44;;;;;;;9.32;2.63;;;;;;;4.12;86.77;99493.03;5067214;28;20373;-63
2022/12/08 14:07:10;;;;;;;6.95;3.03;;;;;;;4.22;86.35;99501.66;5085330;28;20036;-61
2022/12/08 14:09:36;;;;;;;6.55;2.53;;;;;;;4.20;86.65;99494.91;5065411;28;20142;-64
2022/12/08 14:12:22;;;;;;;4.40;2.50;;;;;;;4.18;87.71;99497.69;5084056;28;20420;-64
2022/12/08 14:14:51;;;;;;;4.10;2.60;;;;;;;4.17;88.28;99493.38;5051347;28;20131;-64
2022/12/08 14:17:20;;;;;;;7.70;3.47;;;;;;;4.13;86.75;99497.31;5065776;28;20358;-64
2022/12/08 14:20:18;;;;;;;5.85;2.50;;;;;;;4.05;85.12;99498.06;5083761;28;20130;-64
2022/12/08 14:22:45;;;;;;;4.90;2.67;;;;;;;4.04;85.37;99495.56;5083830;28;20093;-63
2022/12/08 14:25:14;;;;;;;7.57;2.90;;;;;;;4.04;87.79;99491.16;5064911;28;20044;-64
2022/12/08 14:27:40;;;;;;;6.45;3.10;;;;;;;4.04;88.01;99496.41;5085678;28;20093;-62
2022/12/08 14:30:12;;;;;;;6.93;3.03;;;;;;;4.09;90.22;99495.94;5094279;28;20044;-62
2022/12/08 14:32:40;;;;;;;11.40;3.10;;;;;;;4.13;90.90;99499.13;5093993;28;20028;-62
2022/12/08 14:35:06;;;;;;;3.95;2.45;;;;;;;4.10;90.52;99494.97;5094303;28;20036;-63
2022/12/08 14:37:35;;;;;;;4.60;2.65;;;;;;;4.01;90.45;99487.97;5076188;28;20129;-63
2022/12/08 14:40:17;;;;;;;7.50;3.08;;;;;;;3.98;89.95;99493.53;5087429;28;20108;-63
2022/12/08 14:42:46;;;;;;;8.85;3.47;;;;;;;3.97;89.26;99497.97;5094155;28;20334;-63
2022/12/08 14:45:14;;;;;;;9.70;3.55;;;;;;;3.93;91.13;99493.97;5075885;28;20556;-63
2022/12/08 14:47:40;;;;;;;7.53;3.33;;;;;;;3.95;90.28;99499.09;5093912;28;20043;-63
2022/12/08 14:50:38;;;;;;;8.70;4.38;;;;;;;3.94;91.69;99495.63;5093730;28;20079;-63
2022/12/08 14:53:11;;;;;;;8.68;3.60;;;;;;;3.88;92.52;99490.13;5087636;28;20059;-63
2022/12/08 14:55:37;;;;;;;10.10;4.57;;;;;;;3.87;92.32;99494.56;5094048;28;20393;-63
2022/12/08 14:58:03;;;;;;;7.20;3.63;;;;;;;3.89;91.97;99494.41;5093913;28;20485;-61
2022/12/08 15:00:29;;;;;;;6.75;3.35;;;;;;;3.82;93.45;99491.56;5093796;28;20032;-64
2022/12/08 15:02:55;;;;;;;9.07;4.47;;;;;;;3.83;91.01;99493.19;5076185;28;20370;-63
2022/12/08 15:05:31;;;;;;;7.78;3.50;;;;;;;3.80;92.27;99494.34;5075962;28;20043;-63
2022/12/08 15:08:02;;;;;;;10.50;4.57;;;;;;;3.85;92.40;99501.81;5093776;28;20042;-62
2022/12/08 15:10:36;;;;;;;10.23;4.65;;;;;;;3.83;92.08;99495.84;5093358;28;20032;-63
2022/12/08 15:13:19;;;;;;;8.70;4.00;;;;;;;3.84;91.83;99496.66;5093566;28;20135;-63
2022/12/08 15:15:51;;;;;;;7.55;4.15;;;;;;;3.81;93.05;99496.00;5093610;28;20174;-64
2022/12/08 15:18:22;;;;;;;6.82;3.63;;;;;;;3.77;92.00;99488.53;5093489;28;20039;-64
2022/12/08 15:20:54;;;;;;;8.77;3.97;;;;;;;3.77;92.03;99488.53;5093233;28;20342;-64
2022/12/08 15:23:30;;;;;;;52.10;13.70;;;;;;;3.76;91.97;99486.88;5093186;28;20032;-63
2022/12/08 15:25:56;;;;;;;23.73;8.93;;;;;;;3.74;92.82;99494.94;5093325;28;20483;-64
2022/12/08 15:28:27;;;;;;;12.80;5.70;;;;;;;3.73;92.84;99487.19;5075144;28;20153;-64
2022/12/08 15:30:54;;;;;;;7.47;4.15;;;;;;;3.65;93.70;99474.75;5092821;28;20120;-64
2022/12/08 15:33:19;;;;;;;10.98;4.53;;;;;;;3.67;92.98;99493.03;5093060;28;20047;-64
2022/12/08 15:35:47;;;;;;;12.18;4.40;;;;;;;3.68;92.49;99494.69;5092995;28;20036;-64
2022/12/08 15:38:25;;;;;;;10.85;4.85;;;;;;;3.64;93.46;99486.25;5093032;28;20048;-65
2022/12/08 15:40:51;;;;;;;;;;;;;;;3.71;94.28;99487.31;5093118;28;20082;-64
2022/12/08 15:43:17;;;;;;;7.97;4.05;;;;;;;3.69;93.49;99485.81;5092947;28;19919;-65
2022/12/08 15:45:43;;;;;;;9.63;3.78;;;;;;;3.68;93.76;99484.16;5074912;28;20047;-63
2022/12/08 15:48:18;;;;;;;7.68;4.05;;;;;;;3.70;93.98;99487.47;5093075;28;20032;-64
2022/12/08 15:50:43;;;;;;;9.65;4.07;;;;;;;3.67;95.18;99479.88;5074326;28;20040;-65
2022/12/08 15:53:09;;;;;;;9.73;4.18;;;;;;;3.67;93.90;99479.88;5092798;28;20093;-64
2022/12/08 15:55:35;;;;;;;9.57;4.07;;;;;;;3.62;94.65;99477.66;5092973;28;20093;-64
2022/12/08 15:58:01;;;;;;;8.32;3.63;;;;;;;3.64;93.66;99480.97;5092700;28;20044;-64
2022/12/08 16:00:32;;;;;;;8.70;3.75;;;;;;;3.66;95.60;99483.47;5092891;28;20054;-64
2022/12/08 16:02:59;;;;;;;9.23;4.72;;;;;;;3.63;97.62;99475.84;5074559;28;20044;-64
2022/12/08 16:05:25;;;;;;;6.50;3.20;;;;;;;3.64;94.32;99477.50;5091741;28;20040;-64
2022/12/08 16:07:52;;;;;;;6.88;3.45;;;;;;;3.63;94.93;99471.41;5057525;28;20040;-65
2022/12/08 16:10:24;;;;;;;6.63;3.47;;;;;;;3.65;97.37;99473.91;5092256;28;20032;-64
2022/12/08 16:15:36;;;;;;;8.07;3.78;;;;;;;3.49;94.44;99474.56;5092346;28;20036;-64
2022/12/08 16:18:03;;;;;;;12.07;4.57;;;;;;;3.52;94.03;99475.09;5092067;28;20101;-64
2022/12/08 16:20:28;;;;;;;9.13;4.03;;;;;;;3.52;95.09;99471.59;5092017;28;20416;-64
2022/12/08 16:22:54;;;;;;;6.22;3.92;;;;;;;3.50;95.48;99466.50;5092211;28;20093;-62
2022/12/08 16:25:20;;;;;;;6.78;4.00;;;;;;;3.50;95.89;99463.88;5092173;28;20055;-65
2022/12/08 16:27:47;;;;;;;6.50;3.55;;;;;;;3.48;95.25;99457.94;5091949;28;20051;-62
2022/12/08 16:30:15;;;;;;;6.25;3.33;;;;;;;3.49;94.94;99456.13;5091732;28;20035;-65
2022/12/08 16:32:40;;;;;;;8.55;4.60;;;;;;;3.48;94.04;99450.03;5073453;28;20051;-61
2022/12/08 16:35:06;;;;;;;8.63;4.18;;;;;;;3.48;93.87;99451.84;5091860;28;20036;-65
2022/12/08 16:37:31;;;;;;;8.73;3.22;;;;;;;3.48;93.11;99452.66;5091891;28;20562;-66
2022/12/08 16:39:58;;;;;;;7.53;3.75;;;;;;;3.46;95.77;99448.53;5091725;28;20083;-64
2022/12/08 16:42:42;;;;;;;10.93;4.22;;;;;;;3.37;96.85;99444.94;5091558;28;20032;-64
2022/12/08 16:45:20;;;;;;;5.75;3.03;;;;;;;3.35;97.05;99440.81;5091792;28;20048;-62
2022/12/08 16:47:48;;;;;;;7.88;4.28;;;;;;;3.32;98.50;99438.47;5091859;28;20524;-64
2022/12/08 16:50:17;;;;;;;8.00;4.10;;;;;;;3.32;97.59;99441.91;5091392;28;20051;-64
2022/12/08 16:52:42;;;;;;;11.32;4.57;;;;;;;3.27;96.93;99433.66;5073370;28;20432;-66
2022/12/08 16:55:10;;;;;;;8.88;4.25;;;;;;;3.23;96.48;99429.66;5091558;28;20072;-66
2022/12/08 16:57:36;;;;;;;7.63;3.80;;;;;;;3.24;96.80;99434.75;5091586;28;20115;-62
2022/12/08 17:00:03;;;;;;;8.88;4.53;;;;;;;3.28;96.02;99431.84;5091411;28;20040;-62
2022/12/08 17:02:29;;;;;;;6.65;4.10;;;;;;;3.23;96.35;99427.84;5091342;28;20103;-62
2022/12/08 17:04:54;;;;;;;8.15;4.78;;;;;;;3.23;97.10;99438.38;5091426;28;20126;-64
2022/12/08 17:07:19;;;;;;;6.28;4.18;;;;;;;3.22;96.70;99433.25;5091452;28;20100;-63
2022/12/08 17:09:45;;;;;;;11.30;4.18;;;;;;;3.15;97.72;99425.13;5073183;28;20448;-62
2022/12/08 17:12:10;;;;;;;9.10;3.90;;;;;;;3.18;96.97;99437.97;5090711;28;20044;-65
2022/12/08 17:14:36;;;;;;;8.32;4.70;;;;;;;3.22;96.51;99435.91;5073174;28;20069;-63
2022/12/08 17:17:02;;;;;;;8.98;4.45;;;;;;;3.17;97.45;99430.22;5091007;28;20050;-63
2022/12/08 17:19:27;;;;;;;5.15;3.40;;;;;;;3.14;97.41;99430.53;5091460;28;20032;-64